createdAt,value
2023-03-26T00:01:36.759Z,99706.56
2023-03-26T00:04:06.845Z,99717.38
2023-03-26T00:06:40.107Z,99712.78
2023-03-26T00:09:13.690Z,99703.50
2023-03-26T00:11:40.811Z,99713.06
2023-03-26T00:14:09.556Z,99720.94
2023-03-26T00:16:38.802Z,99727.97
2023-03-26T00:19:06.659Z,99733.25
2023-03-26T00:21:34.061Z,99724.16
2023-03-26T00:24:04.914Z,99727.81
2023-03-26T00:26:37.630Z,99732.50
2023-03-26T00:29:08.277Z,99740.19
2023-03-26T00:31:37.970Z,99728.91
2023-03-26T00:34:05.851Z,99738.94
2023-03-26T00:36:36.111Z,99749.78
2023-03-26T00:39:05.856Z,99741.50
2023-03-26T00:41:37.269Z,99749.09
2023-03-26T00:44:04.831Z,99737.25
2023-03-26T00:46:32.358Z,99749.53
2023-03-26T00:49:00.200Z,99748.56
2023-03-26T00:51:28.615Z,99754.72
2023-03-26T00:53:56.692Z,99750.25
2023-03-26T00:56:30.963Z,99754.28
2023-03-26T00:58:58.032Z,99760.09
2023-03-26T01:01:27.946Z,99759.75
2023-03-26T01:04:08.369Z,99760.44
2023-03-26T01:06:39.124Z,99755.91
2023-03-26T01:09:14.842Z,99765.91
2023-03-26T01:11:42.073Z,99758.78
2023-03-26T01:14:14.893Z,99766.59
2023-03-26T01:16:46.489Z,99757.38
2023-03-26T01:19:44.935Z,99752.19
2023-03-26T01:22:18.505Z,99753.97
2023-03-26T01:24:53.525Z,99749.94
2023-03-26T01:27:33.650Z,99757.19
2023-03-26T01:30:13.057Z,99758.47
2023-03-26T01:32:53.115Z,99760.75
2023-03-26T01:35:50.040Z,99766.91
2023-03-26T01:38:46.947Z,99762.06
2023-03-26T01:41:29.059Z,99756.03
2023-03-26T01:44:17.079Z,99751.06
2023-03-26T01:46:45.588Z,99744.25
2023-03-26T01:49:15.457Z,99751.00
2023-03-26T01:51:43.034Z,99752.47
2023-03-26T01:54:17.029Z,99757.31
2023-03-26T01:56:46.992Z,99756.84
2023-03-26T01:59:16.982Z,99758.25
2023-03-26T02:02:04.978Z,99757.44
2023-03-26T02:04:53.549Z,99757.47
2023-03-26T02:07:45.047Z,99757.94
2023-03-26T02:10:32.125Z,99748.38
2023-03-26T02:12:59.809Z,99758.78
2023-03-26T02:15:26.865Z,99746.66
2023-03-26T02:17:54.357Z,99749.03
2023-03-26T02:20:22.180Z,99744.97
2023-03-26T02:22:49.217Z,99755.53
2023-03-26T02:25:21.365Z,99747.41
2023-03-26T02:27:51.843Z,99762.91
2023-03-26T02:30:25.778Z,99756.91
2023-03-26T02:32:59.368Z,99760.84
2023-03-26T02:35:32.287Z,99754.69
2023-03-26T02:38:01.274Z,99750.66
2023-03-26T02:40:28.276Z,99748.53
2023-03-26T02:42:55.764Z,99746.78
2023-03-26T02:45:23.685Z,99748.38
2023-03-26T02:48:10.454Z,99753.00
2023-03-26T02:50:55.770Z,99755.28
2023-03-26T02:53:53.836Z,99753.16
2023-03-26T02:56:41.650Z,99760.00
2023-03-26T02:59:21.001Z,99770.78
2023-03-26T03:01:56.740Z,99765.47
2023-03-26T03:04:24.118Z,99762.88
2023-03-26T03:06:57.818Z,99757.03
2023-03-26T03:09:25.833Z,99768.63
2023-03-26T03:12:11.343Z,99774.03
2023-03-26T03:14:38.269Z,99771.41
2023-03-26T03:17:05.371Z,99769.13
2023-03-26T03:19:32.394Z,99778.00
2023-03-26T03:21:59.390Z,99767.16
2023-03-26T03:24:27.222Z,99774.75
2023-03-26T03:26:56.912Z,99780.06
2023-03-26T03:29:35.635Z,99785.72
2023-03-26T03:32:32.057Z,99776.09
2023-03-26T03:35:03.012Z,99791.50
2023-03-26T03:37:30.050Z,99783.06
2023-03-26T03:39:58.963Z,99778.78
2023-03-26T03:42:28.629Z,99787.56
2023-03-26T03:45:00.110Z,99801.34
2023-03-26T03:47:59.329Z,99806.31
2023-03-26T03:50:39.344Z,99805.13
2023-03-26T03:53:26.410Z,99802.31
2023-03-26T03:55:57.122Z,99808.03
2023-03-26T03:58:34.817Z,99809.84
2023-03-26T04:01:11.220Z,99806.78
2023-03-26T04:03:57.540Z,99802.72
2023-03-26T04:06:31.794Z,99802.91
2023-03-26T04:08:58.896Z,99802.31
2023-03-26T04:11:26.397Z,99802.91
2023-03-26T04:14:28.680Z,99795.81
2023-03-26T04:17:02.389Z,99801.34
2023-03-26T04:19:31.762Z,99817.25
2023-03-26T04:22:02.744Z,99813.94
2023-03-26T04:24:38.386Z,99804.69
2023-03-26T04:27:28.425Z,99809.47
2023-03-26T04:30:06.535Z,99812.03
2023-03-26T04:32:34.845Z,99809.16
2023-03-26T04:35:04.217Z,99811.25
2023-03-26T04:37:39.611Z,99825.50
2023-03-26T04:40:19.598Z,99824.47
2023-03-26T04:43:06.506Z,99823.75
2023-03-26T04:46:02.970Z,99839.41
2023-03-26T04:48:32.789Z,99833.00
2023-03-26T04:50:59.929Z,99843.31
2023-03-26T04:53:26.854Z,99844.13
2023-03-26T04:56:00.137Z,99838.66
2023-03-26T04:58:48.109Z,99840.75
2023-03-26T05:01:16.893Z,99848.41
2023-03-26T05:03:45.968Z,99843.72
2023-03-26T05:06:17.876Z,99842.91
2023-03-26T05:08:45.503Z,99853.75
2023-03-26T05:11:22.428Z,99853.75
2023-03-26T05:13:49.390Z,99847.41
2023-03-26T05:16:17.113Z,99845.78
2023-03-26T05:18:52.154Z,99841.06
2023-03-26T05:21:19.543Z,99840.72
2023-03-26T05:23:46.858Z,99846.63
2023-03-26T05:26:19.220Z,99853.09
2023-03-26T05:28:46.158Z,99856.22
2023-03-26T05:31:36.176Z,99863.50
2023-03-26T05:34:04.060Z,99864.31
2023-03-26T05:36:31.626Z,99862.50
2023-03-26T05:39:29.994Z,99861.50
2023-03-26T05:42:17.080Z,99854.25
2023-03-26T05:45:04.762Z,99855.44
2023-03-26T05:47:34.584Z,99846.94
2023-03-26T05:50:01.785Z,99839.78
2023-03-26T05:52:29.425Z,99843.22
2023-03-26T05:55:18.573Z,99848.13
2023-03-26T05:58:17.863Z,99856.44
2023-03-26T06:01:08.855Z,99867.53
2023-03-26T06:04:05.655Z,99875.91
2023-03-26T06:06:39.384Z,99871.19
2023-03-26T06:09:06.808Z,99878.13
2023-03-26T06:11:33.977Z,99887.16
2023-03-26T06:14:03.020Z,99883.13
2023-03-26T06:16:30.855Z,99874.81
2023-03-26T06:19:18.493Z,99874.13
2023-03-26T06:21:56.430Z,99884.41
2023-03-26T06:24:28.681Z,99880.88
2023-03-26T06:27:13.722Z,99879.31
2023-03-26T06:29:49.478Z,99880.50
2023-03-26T06:32:43.323Z,99868.47
2023-03-26T06:35:14.667Z,99863.59
2023-03-26T06:37:42.532Z,99876.59
2023-03-26T06:40:10.016Z,99877.66
2023-03-26T06:43:08.050Z,99876.25
2023-03-26T06:45:54.354Z,99880.88
2023-03-26T06:48:42.337Z,99883.72
2023-03-26T06:51:27.898Z,99890.81
2023-03-26T06:54:13.921Z,99896.31
2023-03-26T06:56:51.479Z,99896.84
2023-03-26T06:59:44.611Z,99906.09
2023-03-26T07:02:30.299Z,99900.00
2023-03-26T07:05:35.662Z,99896.34
2023-03-26T07:08:21.196Z,99893.53
2023-03-26T07:11:20.945Z,99893.22
2023-03-26T07:14:06.224Z,99909.25
2023-03-26T07:17:05.321Z,99909.84
2023-03-26T07:19:35.246Z,99906.84
2023-03-26T07:22:03.352Z,99893.09
2023-03-26T07:40:07.409Z,99906.84
2023-03-26T07:42:59.109Z,99897.25
2023-03-26T07:45:45.247Z,99900.50
2023-03-26T07:48:45.083Z,99903.09
2023-03-26T07:51:33.018Z,99882.59
2023-03-26T07:54:11.033Z,99888.22
2023-03-26T07:57:30.985Z,99872.31
2023-03-26T08:00:23.613Z,99876.47
2023-03-26T08:03:12.226Z,99877.84
2023-03-26T08:06:08.152Z,99858.19
2023-03-26T08:09:04.499Z,99867.97
2023-03-26T08:12:10.783Z,99851.59
2023-03-26T08:14:46.688Z,99863.31
2023-03-26T08:17:17.623Z,99869.91
2023-03-26T08:19:57.984Z,99867.66
2023-03-26T08:22:54.224Z,99873.66
2023-03-26T08:25:42.837Z,99863.78
2023-03-26T08:28:37.937Z,99879.63
2023-03-26T08:31:05.488Z,99875.69
2023-03-26T08:33:35.049Z,99881.72
2023-03-26T08:36:03.806Z,99885.63
2023-03-26T08:38:30.780Z,99873.44
2023-03-26T08:41:12.755Z,99864.75
2023-03-26T08:44:03.017Z,99867.66
2023-03-26T08:46:54.017Z,99871.47
2023-03-26T08:49:25.550Z,99877.31
2023-03-26T08:52:05.620Z,99877.41
2023-03-26T08:54:47.615Z,99872.63
2023-03-26T08:57:29.282Z,99868.81
2023-03-26T09:00:15.681Z,99878.91
2023-03-26T09:03:10.568Z,99878.44
2023-03-26T09:06:25.666Z,99877.41
2023-03-26T09:09:19.267Z,99867.19
2023-03-26T09:12:34.640Z,99883.78
2023-03-26T09:15:19.928Z,99884.66
2023-03-26T09:17:52.606Z,99883.34
2023-03-26T09:20:41.551Z,99884.78
2023-03-26T09:23:40.470Z,99888.75
2023-03-26T09:26:27.959Z,99903.47
2023-03-26T09:29:21.188Z,99908.38
2023-03-26T09:32:23.946Z,99908.09
2023-03-26T09:35:04.851Z,99908.94
2023-03-26T09:38:00.182Z,99916.47
2023-03-26T09:40:38.288Z,99923.69
2023-03-26T09:43:14.054Z,99909.78
2023-03-26T09:45:47.197Z,99924.13
2023-03-26T09:48:42.251Z,99932.03
2023-03-26T09:51:30.986Z,99928.19
2023-03-26T09:54:17.657Z,99939.72
2023-03-26T09:57:06.128Z,99931.00
2023-03-26T09:59:41.897Z,99920.38
2023-03-26T10:02:21.127Z,99937.47
2023-03-26T10:04:54.258Z,99920.63
2023-03-26T10:07:30.401Z,99927.47
2023-03-26T10:10:24.301Z,99925.31
2023-03-26T10:13:08.318Z,99928.97
2023-03-26T10:15:52.394Z,99937.31
2023-03-26T10:18:52.107Z,99932.34
2023-03-26T10:21:28.376Z,99957.59
2023-03-26T10:24:22.923Z,99950.78
2023-03-26T10:27:24.989Z,99948.50
2023-03-26T10:30:13.335Z,99953.41
2023-03-26T10:33:08.314Z,99950.16
2023-03-26T10:35:35.213Z,99946.56
2023-03-26T10:38:11.126Z,99942.56
2023-03-26T10:41:00.092Z,99952.91
2023-03-26T10:43:36.447Z,99947.38
2023-03-26T10:46:26.892Z,99948.38
2023-03-26T10:49:13.544Z,99940.19
2023-03-26T10:51:57.207Z,99926.81
2023-03-26T10:54:46.314Z,99936.22
2023-03-26T10:57:22.886Z,99943.81
2023-03-26T10:59:50.403Z,99945.38
2023-03-26T11:02:35.512Z,99943.13
2023-03-26T11:05:26.971Z,99945.69
2023-03-26T11:08:14.982Z,99943.41
2023-03-26T11:10:56.349Z,99945.00
2023-03-26T11:13:55.018Z,99942.16
2023-03-26T11:16:36.113Z,99950.97
2023-03-26T11:19:13.413Z,99949.47
2023-03-26T11:22:09.003Z,99955.25
2023-03-26T11:24:54.512Z,99953.25
2023-03-26T11:27:36.744Z,99961.69
2023-03-26T11:30:28.030Z,99960.84
2023-03-26T11:33:00.500Z,99954.03
2023-03-26T11:35:41.097Z,99934.81
2023-03-26T11:38:16.884Z,99941.97
2023-03-26T11:40:51.037Z,99943.41
2023-03-26T11:43:49.922Z,99926.28
2023-03-26T11:46:20.811Z,99937.66
2023-03-26T11:48:59.558Z,99930.38
2023-03-26T11:51:35.886Z,99925.91
2023-03-26T11:54:04.774Z,99934.59
2023-03-26T11:57:05.804Z,99936.63
2023-03-26T11:59:57.583Z,99928.88
2023-03-26T12:02:29.685Z,99929.50
2023-03-26T12:05:29.546Z,99927.13
2023-03-26T12:07:57.502Z,99930.50
2023-03-26T12:10:27.693Z,99932.81
2023-03-26T12:12:59.205Z,99926.41
2023-03-26T12:15:26.691Z,99937.06
2023-03-26T12:17:57.151Z,99932.81
2023-03-26T12:20:25.112Z,99927.72
2023-03-26T12:23:00.052Z,99922.56
2023-03-26T12:25:37.595Z,99927.53
2023-03-26T12:28:18.197Z,99922.69
2023-03-26T12:31:04.376Z,99929.69
2023-03-26T12:33:38.956Z,99929.97
2023-03-26T12:36:18.957Z,99925.53
2023-03-26T12:38:46.562Z,99925.81
2023-03-26T12:44:46.931Z,99927.84
2023-03-26T12:44:59.019Z,99928.13
2023-03-26T12:47:59.920Z,99921.34
2023-03-26T12:50:34.657Z,99910.13
2023-03-26T12:53:09.188Z,99913.66
2023-03-26T12:55:38.797Z,99907.25
2023-03-26T12:58:26.062Z,99890.47
2023-03-26T13:01:37.418Z,99900.13
2023-03-26T13:04:42.337Z,99888.16
2023-03-26T13:07:50.926Z,99890.50
2023-03-26T13:10:50.692Z,99886.66
2023-03-26T13:13:47.997Z,99877.41
2023-03-26T13:16:47.822Z,99889.50
2023-03-26T13:19:36.325Z,99882.28
2023-03-26T13:22:03.149Z,99876.69
2023-03-26T13:24:40.436Z,99882.69
2023-03-26T13:27:16.110Z,99880.41
2023-03-26T13:30:13.900Z,99875.72
2023-03-26T13:32:50.426Z,99885.81
2023-03-26T13:35:38.772Z,99882.38
2023-03-26T13:38:05.623Z,99874.38
2023-03-26T13:41:03.101Z,99892.06
2023-03-26T13:43:36.189Z,99875.97
2023-03-26T13:46:51.219Z,99886.25
2023-03-26T13:49:45.457Z,99891.34
2023-03-26T13:52:36.857Z,99890.13
2023-03-26T13:55:23.177Z,99886.03
2023-03-26T13:58:25.681Z,99881.78
2023-03-26T14:01:12.539Z,99880.63
2023-03-26T14:04:10.507Z,99875.16
2023-03-26T14:06:46.855Z,99879.19
2023-03-26T14:09:23.214Z,99889.66
2023-03-26T14:11:58.668Z,99885.25
2023-03-26T14:14:49.458Z,99891.50
2023-03-26T14:17:25.785Z,99888.88
2023-03-26T14:20:27.215Z,99890.59
2023-03-26T14:23:12.500Z,99900.28
2023-03-26T14:25:57.991Z,99882.72
2023-03-26T14:29:02.238Z,99885.06
2023-03-26T14:31:55.440Z,99882.66
2023-03-26T14:34:33.317Z,99874.88
2023-03-26T14:37:27.850Z,99887.00
2023-03-26T14:40:14.811Z,99882.75
2023-03-26T14:42:46.451Z,99879.88
2023-03-26T14:45:41.221Z,99888.81
2023-03-26T14:48:30.844Z,99886.22
2023-03-26T14:51:23.348Z,99885.41
2023-03-26T14:53:55.502Z,99884.59
2023-03-26T14:56:28.310Z,99884.97
2023-03-26T14:59:14.134Z,99888.31
2023-03-26T15:01:59.524Z,99886.78
2023-03-26T15:04:54.090Z,99887.13
2023-03-26T15:07:20.951Z,99897.38
2023-03-26T15:09:53.949Z,99897.63
2023-03-26T15:12:42.498Z,99894.84
2023-03-26T15:15:25.143Z,99899.66
2023-03-26T15:18:23.637Z,99912.06
2023-03-26T15:21:24.826Z,99911.56
2023-03-26T15:24:09.898Z,99916.69
2023-03-26T15:27:03.837Z,99915.25
2023-03-26T15:29:52.517Z,99927.66
2023-03-26T15:32:44.610Z,99936.19
2023-03-26T15:35:11.580Z,99932.13
2023-03-26T15:38:15.926Z,99925.22
2023-03-26T15:40:45.690Z,99941.25
2023-03-26T15:43:14.585Z,99934.78
2023-03-26T15:45:48.189Z,99939.19
2023-03-26T15:48:32.506Z,99943.66
2023-03-26T15:51:18.181Z,99939.69
2023-03-26T15:54:16.894Z,99940.72
2023-03-26T15:57:12.411Z,99943.59
2023-03-26T16:00:15.472Z,99952.66
2023-03-26T16:03:10.450Z,99955.94
2023-03-26T16:06:00.122Z,99964.56
2023-03-26T16:08:27.005Z,99967.97
2023-03-26T16:11:07.778Z,99966.00
2023-03-26T16:13:49.261Z,99964.59
2023-03-26T16:16:16.242Z,99975.91
2023-03-26T16:18:45.608Z,99977.00
2023-03-26T16:21:32.836Z,99981.72
2023-03-26T16:24:03.003Z,99988.16
2023-03-26T16:26:47.781Z,99987.97
2023-03-26T16:29:14.679Z,99990.94
2023-03-26T16:32:16.894Z,100000.81
2023-03-26T16:35:21.946Z,100009.50
2023-03-26T16:37:50.956Z,100008.78
2023-03-26T16:40:22.395Z,100004.34
2023-03-26T16:43:01.394Z,100014.59
2023-03-26T16:45:43.478Z,100014.50
2023-03-26T16:48:24.923Z,100022.31
2023-03-26T16:50:57.940Z,100025.44
2023-03-26T16:53:48.439Z,100030.44
2023-03-26T16:56:22.390Z,100040.84
2023-03-26T16:59:09.493Z,100041.97
2023-03-26T17:02:05.180Z,100044.41
2023-03-26T17:04:34.403Z,100045.72
2023-03-26T17:07:20.088Z,100047.81
2023-03-26T17:10:26.077Z,100058.84
2023-03-26T17:13:06.485Z,100059.66
2023-03-26T17:16:19.702Z,100067.28
2023-03-26T17:19:05.533Z,100080.44
2023-03-26T17:21:45.536Z,100079.59
2023-03-26T17:24:27.424Z,100065.03
2023-03-26T17:27:36.608Z,100072.16
2023-03-26T17:30:42.368Z,100075.56
2023-03-26T17:33:34.907Z,100078.13
2023-03-26T17:36:11.479Z,100072.63
2023-03-26T17:38:45.294Z,100073.28
2023-03-26T17:41:15.798Z,100084.31
2023-03-26T17:43:51.920Z,100080.06
2023-03-26T17:46:39.256Z,100091.09
2023-03-26T17:49:12.094Z,100092.06
2023-03-26T17:51:52.991Z,100093.69
2023-03-26T17:54:34.705Z,100089.16
2023-03-26T17:57:13.112Z,100100.34
2023-03-26T17:59:43.493Z,100098.72
2023-03-26T18:02:17.769Z,100106.34
2023-03-26T18:04:48.444Z,100118.00
2023-03-26T18:07:35.792Z,100107.97
2023-03-26T18:10:28.843Z,100101.94
2023-03-26T18:13:15.770Z,100108.41
2023-03-26T18:15:48.735Z,100110.84
2023-03-26T18:18:54.405Z,100108.56
2023-03-26T18:21:40.486Z,100107.59
2023-03-26T18:24:13.867Z,100100.00
2023-03-26T18:26:47.207Z,100103.59
2023-03-26T18:29:24.968Z,100111.38
2023-03-26T18:32:00.684Z,100114.59
2023-03-26T18:34:31.749Z,100115.25
2023-03-26T18:37:16.769Z,100111.38
2023-03-26T18:40:21.105Z,100111.53
2023-03-26T18:42:57.968Z,100103.56
2023-03-26T18:45:33.827Z,100100.50
2023-03-26T18:48:05.116Z,100108.63
2023-03-26T18:50:39.132Z,100098.22
2023-03-26T18:53:14.472Z,100097.09
2023-03-26T18:55:41.365Z,100099.22
2023-03-26T18:58:23.797Z,100095.66
2023-03-26T19:01:02.496Z,100102.97
2023-03-26T19:03:35.720Z,100095.16
2023-03-26T19:06:08.338Z,100099.03
2023-03-26T19:08:41.133Z,100091.13
2023-03-26T19:11:09.874Z,100086.59
2023-03-26T19:13:41.930Z,100087.72
2023-03-26T19:16:24.424Z,100089.50
2023-03-26T19:18:52.379Z,100085.28
2023-03-26T19:21:23.318Z,100083.81
2023-03-26T19:23:52.743Z,100092.75
2023-03-26T19:26:19.967Z,100081.56
2023-03-26T19:41:38.204Z,100088.94
2023-03-26T19:44:17.963Z,100090.66
2023-03-26T19:46:53.734Z,100096.16
2023-03-26T19:49:33.244Z,100086.19
2023-03-26T19:52:05.464Z,100075.06
2023-03-26T19:54:32.562Z,100071.50
2023-03-26T19:57:01.018Z,100064.41
2023-03-26T19:59:27.899Z,100065.06
2023-03-26T20:01:54.764Z,100073.13
2023-03-26T20:04:22.091Z,100064.06
2023-03-26T20:06:49.925Z,100062.13
2023-03-26T20:09:16.955Z,100052.56
2023-03-26T20:11:44.152Z,100060.97
2023-03-26T20:14:26.280Z,100048.53
2023-03-26T20:16:53.888Z,100041.06
2023-03-26T20:19:20.849Z,100041.88
2023-03-26T20:21:47.764Z,100036.22
2023-03-26T20:24:17.715Z,100038.97
2023-03-26T20:26:46.121Z,100033.00
2023-03-26T20:29:14.242Z,100022.97
2023-03-26T20:31:42.110Z,100027.50
2023-03-26T20:34:15.381Z,100025.72
2023-03-26T20:36:42.202Z,100017.13
2023-03-26T20:39:09.780Z,100022.47
2023-03-26T20:41:47.789Z,100027.50
2023-03-26T20:44:17.716Z,100020.03
2023-03-26T20:46:56.581Z,100019.56
2023-03-26T20:49:23.540Z,100022.81
2023-03-26T20:51:52.505Z,100005.28
2023-03-26T20:54:24.618Z,100003.31
2023-03-26T20:56:53.563Z,100011.41
2023-03-26T20:59:26.812Z,100006.41
2023-03-26T21:01:56.752Z,99996.72
2023-03-26T21:04:25.309Z,100003.19
2023-03-26T21:06:57.534Z,100006.13
2023-03-26T21:09:34.110Z,100000.44
2023-03-26T21:12:14.857Z,100000.44
2023-03-26T21:14:43.543Z,100002.06
2023-03-26T21:17:22.405Z,99999.19
2023-03-26T21:19:49.824Z,100006.78
2023-03-26T21:22:26.706Z,100002.75
2023-03-26T21:25:12.062Z,100010.66
2023-03-26T21:27:55.653Z,100014.69
2023-03-26T21:30:22.762Z,100020.47
2023-03-26T21:32:50.299Z,100021.44
2023-03-26T21:35:18.348Z,100019.03
2023-03-26T21:37:48.707Z,100022.03
2023-03-26T21:40:18.295Z,100018.81
2023-03-26T21:42:51.641Z,100024.66
2023-03-26T21:45:19.695Z,100030.91
2023-03-26T21:47:47.411Z,100020.53
2023-03-26T21:50:18.066Z,100014.44
2023-03-26T21:52:48.502Z,100016.22
2023-03-26T21:55:21.218Z,100003.09
2023-03-26T21:58:09.395Z,100012.16
2023-03-26T22:00:49.913Z,100000.50
2023-03-26T22:03:46.999Z,99996.94
2023-03-26T22:06:18.519Z,100002.44
2023-03-26T22:08:46.094Z,99994.69
2023-03-26T22:11:13.303Z,100001.94
2023-03-26T22:13:40.659Z,99999.00
2023-03-26T22:16:10.123Z,100002.28
2023-03-26T22:18:37.550Z,100004.50
2023-03-26T22:21:04.983Z,100000.78
2023-03-26T22:23:36.543Z,100001.63
2023-03-26T22:26:05.289Z,100012.72
2023-03-26T22:28:32.385Z,100002.38
2023-03-26T22:30:59.730Z,100009.53
2023-03-26T22:33:27.103Z,99991.06
2023-03-26T22:35:56.282Z,99989.59
2023-03-26T22:38:23.702Z,99982.50
2023-03-26T22:40:58.286Z,99973.56
2023-03-26T22:43:25.164Z,99972.25
2023-03-26T22:45:55.604Z,99971.44
2023-03-26T22:48:24.113Z,99972.09
2023-03-26T22:51:06.839Z,99976.41
2023-03-26T22:53:34.268Z,99976.56
2023-03-26T22:56:01.292Z,99972.88
2023-03-26T22:58:28.672Z,99971.06
2023-03-26T23:01:07.882Z,99962.03
2023-03-26T23:03:36.065Z,99964.78
2023-03-26T23:06:07.086Z,99960.72
2023-03-26T23:08:35.290Z,99969.88
2023-03-26T23:11:02.600Z,99960.50
2023-03-26T23:13:29.570Z,99946.94
2023-03-26T23:15:57.345Z,99952.34
2023-03-26T23:18:24.617Z,99949.09
2023-03-26T23:20:55.492Z,99947.16
2023-03-26T23:23:27.880Z,99945.53
2023-03-26T23:26:00.027Z,99941.44
2023-03-26T23:28:30.290Z,99943.06
2023-03-26T23:30:57.368Z,99937.41
2023-03-26T23:33:26.829Z,99930.94
2023-03-26T23:35:58.574Z,99926.59
2023-03-26T23:38:29.343Z,99929.38
2023-03-26T23:41:15.152Z,99933.22
2023-03-26T23:43:54.368Z,99936.38
2023-03-26T23:46:24.702Z,99933.16
2023-03-26T23:48:52.649Z,99929.28
2023-03-26T23:51:20.300Z,99931.97
2023-03-26T23:53:48.088Z,99931.00
2023-03-26T23:56:15.550Z,99937.91
2023-03-26T23:58:43.052Z,99927.91
